Terminal Aerodrome Forecast
Issued by NWS Topeka, KS

Home | Current Version | Previous Version | Text Only | Print | Product List | Glossary Off
Versions: 1 2 3 4 5 6 7 8 9 10 11 12 13 14 15 16 17

948
FTUS43 KTOP 272336
TAFTOP
TAF
KTOP 272336Z 2800/2824 14010KT P6SM VCTS SCT030CB BKN110
      TEMPO 2802/2804 2SM TSRA BR BKN025CB
     FM280600 14005KT P6SM SCT030 BKN100
     FM281500 22010KT P6SM SCT035=

USA.gov is the U.S. government's official web portal to all federal, state and local government web resources and services.